sensor_id;sensor_type;location;lat;lon;timestamp;pressure;altitude;pressure_sealevel;temperature;humidity
72900;BME280;61043;52.036;5.566;2022-09-12T00:01:22;101847.25;;;17.44;74.59
72900;BME280;61043;52.036;5.566;2022-09-12T00:03:56;101848.22;;;17.43;74.54
72900;BME280;61043;52.036;5.566;2022-09-12T00:06:35;101839.72;;;17.38;75.31
72900;BME280;61043;52.036;5.566;2022-09-12T00:09:09;101842.06;;;17.31;75.88
72900;BME280;61043;52.036;5.566;2022-09-12T00:11:40;101837.56;;;17.20;75.46
72900;BME280;61043;52.036;5.566;2022-09-12T00:14:09;101842.78;;;17.22;75.87
72900;BME280;61043;52.036;5.566;2022-09-12T00:16:37;101829.31;;;17.12;76.30
72900;BME280;61043;52.036;5.566;2022-09-12T00:19:05;101839.53;;;16.96;77.44
72900;BME280;61043;52.036;5.566;2022-09-12T00:21:33;101836.50;;;16.89;77.53
72900;BME280;61043;52.036;5.566;2022-09-12T00:24:00;101814.13;;;16.79;77.15
72900;BME280;61043;52.036;5.566;2022-09-12T00:26:27;101828.59;;;16.88;76.92
72900;BME280;61043;52.036;5.566;2022-09-12T00:28:53;101840.25;;;16.87;77.69
72900;BME280;61043;52.036;5.566;2022-09-12T00:31:22;101822.47;;;16.63;78.13
72900;BME280;61043;52.036;5.566;2022-09-12T00:33:54;101828.19;;;16.58;78.95
72900;BME280;61043;52.036;5.566;2022-09-12T00:36:22;101800.31;;;16.27;79.69
72900;BME280;61043;52.036;5.566;2022-09-12T00:38:49;101814.28;;;16.31;80.22
72900;BME280;61043;52.036;5.566;2022-09-12T00:41:20;101815.38;;;16.28;80.16
72900;BME280;61043;52.036;5.566;2022-09-12T00:43:48;101817.59;;;16.34;79.60
72900;BME280;61043;52.036;5.566;2022-09-12T00:46:16;101814.78;;;16.36;79.44
72900;BME280;61043;52.036;5.566;2022-09-12T00:48:51;101783.03;;;16.20;79.88
72900;BME280;61043;52.036;5.566;2022-09-12T00:51:19;101802.50;;;16.33;79.02
72900;BME280;61043;52.036;5.566;2022-09-12T00:53:47;101811.50;;;16.44;78.80
72900;BME280;61043;52.036;5.566;2022-09-12T00:56:16;101806.16;;;16.44;78.20
72900;BME280;61043;52.036;5.566;2022-09-12T00:58:55;101817.59;;;16.57;77.99
72900;BME280;61043;52.036;5.566;2022-09-12T01:01:23;101809.22;;;16.62;77.38
72900;BME280;61043;52.036;5.566;2022-09-12T01:03:53;101783.19;;;16.52;77.04
72900;BME280;61043;52.036;5.566;2022-09-12T01:06:29;101793.28;;;16.60;77.25
72900;BME280;61043;52.036;5.566;2022-09-12T01:08:58;101786.13;;;16.49;78.06
72900;BME280;61043;52.036;5.566;2022-09-12T01:11:30;101795.22;;;16.35;79.05
72900;BME280;61043;52.036;5.566;2022-09-12T01:13:58;101787.41;;;16.21;79.28
72900;BME280;61043;52.036;5.566;2022-09-12T01:16:25;101793.50;;;16.23;79.33
72900;BME280;61043;52.036;5.566;2022-09-12T01:19:19;101793.03;;;16.29;79.11
72900;BME280;61043;52.036;5.566;2022-09-12T01:31:04;101793.28;;;16.37;78.23
72900;BME280;61043;52.036;5.566;2022-09-12T01:33:44;101783.06;;;16.31;78.28
72900;BME280;61043;52.036;5.566;2022-09-12T01:39:23;101777.13;;;16.28;78.29
72900;BME280;61043;52.036;5.566;2022-09-12T01:45:01;101765.19;;;16.21;78.33
72900;BME280;61043;52.036;5.566;2022-09-12T01:47:39;101776.50;;;16.24;78.20
72900;BME280;61043;52.036;5.566;2022-09-12T01:50:17;101762.16;;;16.14;78.57
72900;BME280;61043;52.036;5.566;2022-09-12T01:55:41;101768.34;;;16.26;77.36
72900;BME280;61043;52.036;5.566;2022-09-12T01:58:26;101768.50;;;16.24;77.06
72900;BME280;61043;52.036;5.566;2022-09-12T02:01:10;101762.16;;;16.25;76.92
72900;BME280;61043;52.036;5.566;2022-09-12T02:03:41;101762.75;;;16.29;77.13
72900;BME280;61043;52.036;5.566;2022-09-12T02:06:38;101761.06;;;16.28;77.11
72900;BME280;61043;52.036;5.566;2022-09-12T02:09:14;101750.75;;;16.23;77.30
72900;BME280;61043;52.036;5.566;2022-09-12T02:11:44;101746.72;;;16.17;77.09
72900;BME280;61043;52.036;5.566;2022-09-12T02:14:30;101738.13;;;16.14;77.27
72900;BME280;61043;52.036;5.566;2022-09-12T02:17:02;101748.56;;;16.17;76.82
72900;BME280;61043;52.036;5.566;2022-09-12T02:19:37;101727.38;;;16.03;76.79
72900;BME280;61043;52.036;5.566;2022-09-12T02:22:10;101742.97;;;16.09;77.00
72900;BME280;61043;52.036;5.566;2022-09-12T02:24:42;101733.72;;;16.02;77.33
72900;BME280;61043;52.036;5.566;2022-09-12T02:27:20;101737.22;;;16.02;78.07
72900;BME280;61043;52.036;5.566;2022-09-12T02:29:49;101730.78;;;15.93;78.86
72900;BME280;61043;52.036;5.566;2022-09-12T02:32:36;101742.06;;;15.86;79.62
72900;BME280;61043;52.036;5.566;2022-09-12T02:38:12;101733.16;;;15.74;79.76
72900;BME280;61043;52.036;5.566;2022-09-12T02:40:40;101732.19;;;15.75;79.30
72900;BME280;61043;52.036;5.566;2022-09-12T02:43:07;101737.06;;;15.81;78.87
72900;BME280;61043;52.036;5.566;2022-09-12T02:45:34;101725.63;;;15.79;78.93
72900;BME280;61043;52.036;5.566;2022-09-12T02:48:07;101725.03;;;15.76;79.56
72900;BME280;61043;52.036;5.566;2022-09-12T02:50:37;101724.28;;;15.73;79.31
72900;BME280;61043;52.036;5.566;2022-09-12T02:53:06;101729.16;;;15.80;78.62
72900;BME280;61043;52.036;5.566;2022-09-12T02:55:34;101711.69;;;15.76;78.60
72900;BME280;61043;52.036;5.566;2022-09-12T02:58:05;101724.56;;;15.82;78.64
72900;BME280;61043;52.036;5.566;2022-09-12T03:00:36;101720.53;;;15.76;79.59
72900;BME280;61043;52.036;5.566;2022-09-12T03:06:18;101710.31;;;15.46;80.74
72900;BME280;61043;52.036;5.566;2022-09-12T03:08:57;101720.56;;;15.52;79.98
72900;BME280;61043;52.036;5.566;2022-09-12T03:11:49;101718.13;;;15.49;80.38
72900;BME280;61043;52.036;5.566;2022-09-12T03:14:54;101714.81;;;15.45;81.28
72900;BME280;61043;52.036;5.566;2022-09-12T03:18:05;101709.63;;;15.44;80.91
72900;BME280;61043;52.036;5.566;2022-09-12T03:20:51;101703.41;;;15.43;80.70
72900;BME280;61043;52.036;5.566;2022-09-12T03:23:28;101708.31;;;15.49;79.96
72900;BME280;61043;52.036;5.566;2022-09-12T03:26:00;101699.44;;;15.49;79.73
72900;BME280;61043;52.036;5.566;2022-09-12T03:28:30;101691.53;;;15.47;79.21
72900;BME280;61043;52.036;5.566;2022-09-12T03:30:58;101700.78;;;15.55;78.87
72900;BME280;61043;52.036;5.566;2022-09-12T03:33:25;101701.53;;;15.57;78.63
72900;BME280;61043;52.036;5.566;2022-09-12T03:35:52;101694.47;;;15.56;78.57
72900;BME280;61043;52.036;5.566;2022-09-12T03:38:20;101699.81;;;15.56;78.33
72900;BME280;61043;52.036;5.566;2022-09-12T03:40:47;101682.44;;;15.50;78.47
72900;BME280;61043;52.036;5.566;2022-09-12T03:43:19;101698.88;;;15.57;78.24
72900;BME280;61043;52.036;5.566;2022-09-12T03:45:49;101697.78;;;15.59;78.50
72900;BME280;61043;52.036;5.566;2022-09-12T03:48:17;101672.00;;;15.47;78.52
72900;BME280;61043;52.036;5.566;2022-09-12T03:50:44;101691.19;;;15.52;78.61
72900;BME280;61043;52.036;5.566;2022-09-12T03:53:10;101685.47;;;15.45;79.29
72900;BME280;61043;52.036;5.566;2022-09-12T03:55:42;101691.78;;;15.44;79.65
72900;BME280;61043;52.036;5.566;2022-09-12T03:58:09;101680.34;;;15.31;79.33
72900;BME280;61043;52.036;5.566;2022-09-12T04:00:38;101698.31;;;15.40;79.43
72900;BME280;61043;52.036;5.566;2022-09-12T04:03:04;101687.88;;;15.37;78.97
72900;BME280;61043;52.036;5.566;2022-09-12T04:05:31;101681.78;;;15.35;79.08
72900;BME280;61043;52.036;5.566;2022-09-12T04:07:58;101677.44;;;15.34;78.72
72900;BME280;61043;52.036;5.566;2022-09-12T04:10:24;101688.72;;;15.38;78.73
72900;BME280;61043;52.036;5.566;2022-09-12T04:12:51;101685.31;;;15.36;78.90
72900;BME280;61043;52.036;5.566;2022-09-12T04:15:18;101680.59;;;15.39;79.17
72900;BME280;61043;52.036;5.566;2022-09-12T04:17:44;101659.22;;;15.28;79.36
72900;BME280;61043;52.036;5.566;2022-09-12T04:20:11;101674.72;;;15.23;80.91
72900;BME280;61043;52.036;5.566;2022-09-12T04:22:37;101685.72;;;15.18;81.02
72900;BME280;61043;52.036;5.566;2022-09-12T04:25:04;101680.31;;;15.07;82.26
72900;BME280;61043;52.036;5.566;2022-09-12T04:27:31;101672.41;;;14.94;83.21
72900;BME280;61043;52.036;5.566;2022-09-12T04:29:59;101677.75;;;14.94;83.06
72900;BME280;61043;52.036;5.566;2022-09-12T04:32:28;101675.28;;;14.91;82.39
72900;BME280;61043;52.036;5.566;2022-09-12T04:34:54;101669.75;;;14.94;81.78
72900;BME280;61043;52.036;5.566;2022-09-12T04:37:22;101677.16;;;15.02;81.62
72900;BME280;61043;52.036;5.566;2022-09-12T04:39:49;101680.22;;;15.08;81.00
72900;BME280;61043;52.036;5.566;2022-09-12T04:42:17;101684.16;;;15.16;80.59
72900;BME280;61043;52.036;5.566;2022-09-12T04:44:43;101686.34;;;15.22;80.85
72900;BME280;61043;52.036;5.566;2022-09-12T04:47:10;101682.94;;;15.20;80.25
72900;BME280;61043;52.036;5.566;2022-09-12T04:49:36;101664.50;;;15.17;80.09
72900;BME280;61043;52.036;5.566;2022-09-12T04:52:03;101674.81;;;15.21;80.96
72900;BME280;61043;52.036;5.566;2022-09-12T04:54:29;101674.34;;;15.27;80.49
72900;BME280;61043;52.036;5.566;2022-09-12T04:56:56;101665.47;;;15.16;82.07
72900;BME280;61043;52.036;5.566;2022-09-12T04:59:23;101671.38;;;15.08;82.58
72900;BME280;61043;52.036;5.566;2022-09-12T05:01:49;101666.63;;;15.00;82.55
72900;BME280;61043;52.036;5.566;2022-09-12T05:04:16;101659.56;;;14.99;82.03
72900;BME280;61043;52.036;5.566;2022-09-12T05:06:45;101677.22;;;15.13;81.27
72900;BME280;61043;52.036;5.566;2022-09-12T05:09:13;101659.00;;;15.07;82.03
72900;BME280;61043;52.036;5.566;2022-09-12T05:11:42;101674.94;;;15.20;81.66
72900;BME280;61043;52.036;5.566;2022-09-12T05:14:29;101677.84;;;15.17;82.87
72900;BME280;61043;52.036;5.566;2022-09-12T05:16:58;101678.81;;;15.16;82.73
72900;BME280;61043;52.036;5.566;2022-09-12T05:19:27;101676.13;;;15.16;82.97
72900;BME280;61043;52.036;5.566;2022-09-12T05:21:55;101671.16;;;15.11;83.82
72900;BME280;61043;52.036;5.566;2022-09-12T05:24:22;101682.78;;;15.10;83.67
72900;BME280;61043;52.036;5.566;2022-09-12T05:26:50;101688.97;;;15.11;83.53
72900;BME280;61043;52.036;5.566;2022-09-12T05:29:17;101675.63;;;15.11;82.78
72900;BME280;61043;52.036;5.566;2022-09-12T05:31:43;101671.16;;;15.11;83.32
72900;BME280;61043;52.036;5.566;2022-09-12T05:34:10;101660.25;;;15.14;82.93
72900;BME280;61043;52.036;5.566;2022-09-12T05:36:37;101670.81;;;15.16;83.26
72900;BME280;61043;52.036;5.566;2022-09-12T05:39:04;101673.47;;;15.16;84.31
72900;BME280;61043;52.036;5.566;2022-09-12T05:41:31;101671.88;;;15.13;83.77
72900;BME280;61043;52.036;5.566;2022-09-12T05:44:01;101676.66;;;15.21;82.87
72900;BME280;61043;52.036;5.566;2022-09-12T05:46:36;101666.81;;;15.21;82.84
72900;BME280;61043;52.036;5.566;2022-09-12T05:49:08;101677.53;;;15.33;81.79
72900;BME280;61043;52.036;5.566;2022-09-12T05:51:37;101662.84;;;15.27;82.16
72900;BME280;61043;52.036;5.566;2022-09-12T05:54:06;101652.88;;;15.18;82.63
72900;BME280;61043;52.036;5.566;2022-09-12T05:56:37;101640.97;;;15.11;83.86
72900;BME280;61043;52.036;5.566;2022-09-12T05:59:24;101682.25;;;15.29;84.12
72900;BME280;61043;52.036;5.566;2022-09-12T06:01:52;101665.84;;;15.22;83.91
72900;BME280;61043;52.036;5.566;2022-09-12T06:04:19;101665.13;;;15.20;84.14
72900;BME280;61043;52.036;5.566;2022-09-12T06:06:45;101666.72;;;15.23;84.55
72900;BME280;61043;52.036;5.566;2022-09-12T06:09:14;101666.41;;;15.15;85.62
72900;BME280;61043;52.036;5.566;2022-09-12T06:11:41;101612.09;;;14.80;85.03
72900;BME280;61043;52.036;5.566;2022-09-12T06:14:10;101664.81;;;15.12;84.85
72900;BME280;61043;52.036;5.566;2022-09-12T06:16:38;101668.97;;;15.16;85.39
72900;BME280;61043;52.036;5.566;2022-09-12T06:19:13;101670.81;;;15.16;85.17
72900;BME280;61043;52.036;5.566;2022-09-12T06:21:40;101667.50;;;15.12;84.53
72900;BME280;61043;52.036;5.566;2022-09-12T06:24:07;101661.78;;;15.05;84.95
72900;BME280;61043;52.036;5.566;2022-09-12T06:26:34;101673.56;;;15.14;84.42
72900;BME280;61043;52.036;5.566;2022-09-12T06:29:01;101680.41;;;15.18;84.72
72900;BME280;61043;52.036;5.566;2022-09-12T06:31:33;101674.41;;;15.15;85.26
72900;BME280;61043;52.036;5.566;2022-09-12T06:34:02;101660.81;;;15.06;85.57
72900;BME280;61043;52.036;5.566;2022-09-12T06:36:36;101669.22;;;15.13;84.91
72900;BME280;61043;52.036;5.566;2022-09-12T06:39:15;101676.50;;;15.22;85.02
72900;BME280;61043;52.036;5.566;2022-09-12T06:41:43;101671.94;;;15.24;85.01
72900;BME280;61043;52.036;5.566;2022-09-12T06:44:12;101676.06;;;15.28;84.65
72900;BME280;61043;52.036;5.566;2022-09-12T06:46:40;101680.56;;;15.28;85.47
72900;BME280;61043;52.036;5.566;2022-09-12T06:49:07;101664.75;;;15.25;85.16
72900;BME280;61043;52.036;5.566;2022-09-12T06:51:33;101673.19;;;15.43;85.08
72900;BME280;61043;52.036;5.566;2022-09-12T06:54:01;101675.28;;;15.50;85.29
72900;BME280;61043;52.036;5.566;2022-09-12T06:56:29;101660.50;;;15.58;85.03
72900;BME280;61043;52.036;5.566;2022-09-12T06:58:56;101676.25;;;15.73;84.33
72900;BME280;61043;52.036;5.566;2022-09-12T07:01:26;101677.31;;;15.71;84.58
72900;BME280;61043;52.036;5.566;2022-09-12T07:03:55;101668.38;;;15.72;84.33
72900;BME280;61043;52.036;5.566;2022-09-12T07:06:23;101663.38;;;15.79;84.50
72900;BME280;61043;52.036;5.566;2022-09-12T07:08:51;101656.97;;;15.81;84.32
72900;BME280;61043;52.036;5.566;2022-09-12T07:11:20;101654.66;;;15.88;84.05
72900;BME280;61043;52.036;5.566;2022-09-12T07:13:49;101651.91;;;16.01;84.06
72900;BME280;61043;52.036;5.566;2022-09-12T07:16:16;101633.41;;;15.98;83.34
72900;BME280;61043;52.036;5.566;2022-09-12T07:18:50;101659.41;;;16.18;82.98
72900;BME280;61043;52.036;5.566;2022-09-12T07:21:16;101640.69;;;16.18;82.84
72900;BME280;61043;52.036;5.566;2022-09-12T07:23:43;101660.13;;;16.31;82.92
72900;BME280;61043;52.036;5.566;2022-09-12T07:26:12;101667.75;;;16.47;82.37
72900;BME280;61043;52.036;5.566;2022-09-12T07:28:39;101662.69;;;16.55;82.07
72900;BME280;61043;52.036;5.566;2022-09-12T07:31:09;101659.13;;;16.77;81.73
72900;BME280;61043;52.036;5.566;2022-09-12T07:33:36;101659.19;;;16.98;81.13
72900;BME280;61043;52.036;5.566;2022-09-12T07:36:05;101659.84;;;17.12;80.53
72900;BME280;61043;52.036;5.566;2022-09-12T07:38:32;101655.59;;;17.09;80.21
72900;BME280;61043;52.036;5.566;2022-09-12T07:40:58;101655.31;;;16.91;80.79
72900;BME280;61043;52.036;5.566;2022-09-12T07:43:26;101665.72;;;17.06;80.85
72900;BME280;61043;52.036;5.566;2022-09-12T07:45:56;101657.53;;;17.18;80.40
72900;BME280;61043;52.036;5.566;2022-09-12T07:48:23;101648.06;;;17.14;80.03
72900;BME280;61043;52.036;5.566;2022-09-12T07:51:00;101654.03;;;17.39;79.46
72900;BME280;61043;52.036;5.566;2022-09-12T07:53:31;101659.00;;;17.43;78.89
72900;BME280;61043;52.036;5.566;2022-09-12T07:55:58;101668.66;;;17.56;78.73
72900;BME280;61043;52.036;5.566;2022-09-12T07:58:25;101655.16;;;17.57;78.44
72900;BME280;61043;52.036;5.566;2022-09-12T08:00:52;101665.06;;;17.66;78.11
72900;BME280;61043;52.036;5.566;2022-09-12T08:03:19;101655.97;;;17.79;77.97
72900;BME280;61043;52.036;5.566;2022-09-12T08:05:45;101671.66;;;18.04;77.33
72900;BME280;61043;52.036;5.566;2022-09-12T08:08:12;101649.81;;;18.09;77.43
72900;BME280;61043;52.036;5.566;2022-09-12T08:10:39;101660.38;;;18.31;76.89
72900;BME280;61043;52.036;5.566;2022-09-12T08:13:05;101657.53;;;18.33;76.59
72900;BME280;61043;52.036;5.566;2022-09-12T08:15:36;101665.19;;;18.38;76.35
72900;BME280;61043;52.036;5.566;2022-09-12T08:18:02;101655.19;;;18.40;76.00
72900;BME280;61043;52.036;5.566;2022-09-12T08:20:29;101659.00;;;18.56;75.57
72900;BME280;61043;52.036;5.566;2022-09-12T08:22:56;101614.28;;;18.47;75.31
72900;BME280;61043;52.036;5.566;2022-09-12T08:25:22;101620.13;;;18.82;74.68
72900;BME280;61043;52.036;5.566;2022-09-12T08:27:49;101660.97;;;19.24;73.34
72900;BME280;61043;52.036;5.566;2022-09-12T08:30:16;101667.47;;;19.41;73.28
72900;BME280;61043;52.036;5.566;2022-09-12T08:32:42;101639.63;;;19.42;72.80
72900;BME280;61043;52.036;5.566;2022-09-12T08:35:09;101659.13;;;19.54;72.64
72900;BME280;61043;52.036;5.566;2022-09-12T08:37:36;101661.22;;;19.50;72.56
72900;BME280;61043;52.036;5.566;2022-09-12T08:40:03;101659.25;;;19.62;72.58
72900;BME280;61043;52.036;5.566;2022-09-12T08:42:51;101656.41;;;19.73;72.13
72900;BME280;61043;52.036;5.566;2022-09-12T08:45:27;101668.09;;;19.92;71.82
72900;BME280;61043;52.036;5.566;2022-09-12T08:47:55;101661.56;;;20.04;71.50
72900;BME280;61043;52.036;5.566;2022-09-12T08:50:22;101665.78;;;20.16;70.40
72900;BME280;61043;52.036;5.566;2022-09-12T08:52:56;101667.94;;;20.30;70.02
72900;BME280;61043;52.036;5.566;2022-09-12T08:55:31;101672.28;;;20.41;68.96
72900;BME280;61043;52.036;5.566;2022-09-12T08:58:00;101657.06;;;20.32;68.57
72900;BME280;61043;52.036;5.566;2022-09-12T09:00:35;101665.88;;;20.52;68.12
72900;BME280;61043;52.036;5.566;2022-09-12T09:05:47;101644.97;;;20.73;67.41
72900;BME280;61043;52.036;5.566;2022-09-12T09:10:54;101643.25;;;20.90;67.03
72900;BME280;61043;52.036;5.566;2022-09-12T09:16:25;101633.38;;;20.91;67.12
72900;BME280;61043;52.036;5.566;2022-09-12T09:18:53;101645.91;;;21.00;67.03
72900;BME280;61043;52.036;5.566;2022-09-12T09:21:26;101624.91;;;20.86;67.69
72900;BME280;61043;52.036;5.566;2022-09-12T09:24:04;101624.97;;;20.94;67.00
72900;BME280;61043;52.036;5.566;2022-09-12T09:29:25;101639.28;;;21.30;67.62
72900;BME280;61043;52.036;5.566;2022-09-12T09:31:54;101608.31;;;21.34;66.39
72900;BME280;61043;52.036;5.566;2022-09-12T09:34:28;101623.16;;;21.56;66.45
72900;BME280;61043;52.036;5.566;2022-09-12T09:37:40;101627.06;;;21.62;65.68
72900;BME280;61043;52.036;5.566;2022-09-12T09:45:30;101630.19;;;22.10;64.18
72900;BME280;61043;52.036;5.566;2022-09-12T09:48:15;101613.00;;;22.02;63.80
72900;BME280;61043;52.036;5.566;2022-09-12T09:50:43;101620.44;;;22.17;63.50
72900;BME280;61043;52.036;5.566;2022-09-12T09:53:24;101615.31;;;22.23;62.68
72900;BME280;61043;52.036;5.566;2022-09-12T09:55:54;101625.09;;;22.33;61.83
72900;BME280;61043;52.036;5.566;2022-09-12T09:58:32;101612.16;;;22.44;61.63
72900;BME280;61043;52.036;5.566;2022-09-12T10:01:04;101622.59;;;22.39;61.37
72900;BME280;61043;52.036;5.566;2022-09-12T10:03:33;101616.88;;;22.51;61.36
72900;BME280;61043;52.036;5.566;2022-09-12T10:06:20;101612.06;;;22.71;60.75
72900;BME280;61043;52.036;5.566;2022-09-12T10:08:48;101607.00;;;22.92;60.35
72900;BME280;61043;52.036;5.566;2022-09-12T10:13:52;101586.25;;;22.84;59.37
72900;BME280;61043;52.036;5.566;2022-09-12T10:18:56;101592.69;;;23.08;59.26
72900;BME280;61043;52.036;5.566;2022-09-12T10:21:59;101591.00;;;23.23;58.69
72900;BME280;61043;52.036;5.566;2022-09-12T10:24:32;101585.59;;;23.23;58.45
72900;BME280;61043;52.036;5.566;2022-09-12T10:27:13;101593.34;;;23.34;57.38
72900;BME280;61043;52.036;5.566;2022-09-12T10:29:42;101589.63;;;23.52;57.00
72900;BME280;61043;52.036;5.566;2022-09-12T10:32:11;101579.31;;;23.55;57.05
72900;BME280;61043;52.036;5.566;2022-09-12T10:34:43;101540.84;;;23.29;56.31
72900;BME280;61043;52.036;5.566;2022-09-12T10:37:39;101571.56;;;23.44;56.90
72900;BME280;61043;52.036;5.566;2022-09-12T10:40:18;101570.47;;;23.70;56.76
72900;BME280;61043;52.036;5.566;2022-09-12T10:42:51;101561.53;;;23.69;55.59
72900;BME280;61043;52.036;5.566;2022-09-12T10:47:53;101550.69;;;23.86;55.11
72900;BME280;61043;52.036;5.566;2022-09-12T10:50:29;101564.03;;;23.87;55.34
72900;BME280;61043;52.036;5.566;2022-09-12T10:53:13;101559.44;;;23.96;55.09
72900;BME280;61043;52.036;5.566;2022-09-12T10:55:44;101557.53;;;24.05;54.15
72900;BME280;61043;52.036;5.566;2022-09-12T11:01:54;101520.72;;;24.27;53.91
72900;BME280;61043;52.036;5.566;2022-09-12T11:29:48;101530.44;;;25.28;49.70
72900;BME280;61043;52.036;5.566;2022-09-12T11:40:53;101520.34;;;25.52;47.82
72900;BME280;61043;52.036;5.566;2022-09-12T11:43:36;101526.16;;;25.63;47.02
72900;BME280;61043;52.036;5.566;2022-09-12T11:46:18;101532.81;;;25.61;47.30
72900;BME280;61043;52.036;5.566;2022-09-12T11:54:41;101531.00;;;25.68;47.88
72900;BME280;61043;52.036;5.566;2022-09-12T11:57:17;101532.59;;;25.77;48.07
72900;BME280;61043;52.036;5.566;2022-09-12T11:59:56;101531.50;;;25.71;49.16
72900;BME280;61043;52.036;5.566;2022-09-12T12:02:29;101531.50;;;25.71;47.59
72900;BME280;61043;52.036;5.566;2022-09-12T12:05:16;101526.13;;;25.78;47.29
72900;BME280;61043;52.036;5.566;2022-09-12T12:07:54;101516.16;;;25.64;46.91
72900;BME280;61043;52.036;5.566;2022-09-12T12:10:49;101510.72;;;25.79;48.05
72900;BME280;61043;52.036;5.566;2022-09-12T12:15:52;101503.22;;;25.96;47.92
72900;BME280;61043;52.036;5.566;2022-09-12T12:18:26;101494.44;;;25.93;46.69
72900;BME280;61043;52.036;5.566;2022-09-12T12:20:54;101467.94;;;25.96;45.96
72900;BME280;61043;52.036;5.566;2022-09-12T12:23:30;101496.53;;;26.13;45.41
72900;BME280;61043;52.036;5.566;2022-09-12T12:26:02;101483.94;;;26.05;46.14
72900;BME280;61043;52.036;5.566;2022-09-12T12:31:09;101495.09;;;26.17;46.39
72900;BME280;61043;52.036;5.566;2022-09-12T12:36:10;101488.88;;;26.02;46.29
72900;BME280;61043;52.036;5.566;2022-09-12T12:38:53;101484.50;;;26.01;46.06
72900;BME280;61043;52.036;5.566;2022-09-12T12:43:51;101487.31;;;26.29;45.76
72900;BME280;61043;52.036;5.566;2022-09-12T12:46:24;101471.06;;;26.35;45.61
72900;BME280;61043;52.036;5.566;2022-09-12T12:49:17;101469.47;;;26.41;44.93
72900;BME280;61043;52.036;5.566;2022-09-12T12:51:58;101469.97;;;26.30;44.88
72900;BME280;61043;52.036;5.566;2022-09-12T12:54:34;101464.50;;;26.23;44.97
72900;BME280;61043;52.036;5.566;2022-09-12T12:57:22;101453.44;;;26.25;46.41
72900;BME280;61043;52.036;5.566;2022-09-12T12:59:54;101466.25;;;26.52;45.52
72900;BME280;61043;52.036;5.566;2022-09-12T13:02:28;101449.69;;;26.69;45.41
72900;BME280;61043;52.036;5.566;2022-09-12T13:04:59;101456.16;;;26.96;45.21
72900;BME280;61043;52.036;5.566;2022-09-12T13:07:29;101458.06;;;27.02;44.04
72900;BME280;61043;52.036;5.566;2022-09-12T13:09:56;101454.72;;;27.00;42.13
72900;BME280;61043;52.036;5.566;2022-09-12T13:12:31;101443.09;;;26.85;43.52
72900;BME280;61043;52.036;5.566;2022-09-12T13:15:01;101434.72;;;26.79;42.86
72900;BME280;61043;52.036;5.566;2022-09-12T13:20:21;101434.47;;;27.02;44.77
72900;BME280;61043;52.036;5.566;2022-09-12T13:22:54;101416.88;;;26.98;42.75
72900;BME280;61043;52.036;5.566;2022-09-12T13:25:26;101430.72;;;27.04;43.15
72900;BME280;61043;52.036;5.566;2022-09-12T13:30:29;101414.25;;;27.12;43.97
72900;BME280;61043;52.036;5.566;2022-09-12T13:32:56;101418.59;;;27.06;42.94
72900;BME280;61043;52.036;5.566;2022-09-12T13:35:31;101403.78;;;27.15;43.62
72900;BME280;61043;52.036;5.566;2022-09-12T13:38:11;101402.53;;;27.11;42.96
72900;BME280;61043;52.036;5.566;2022-09-12T13:40:59;101393.22;;;27.27;42.83
72900;BME280;61043;52.036;5.566;2022-09-12T13:43:39;101400.78;;;27.32;43.23
72900;BME280;61043;52.036;5.566;2022-09-12T13:46:07;101392.00;;;27.36;43.11
72900;BME280;61043;52.036;5.566;2022-09-12T13:48:38;101392.91;;;27.50;42.15
72900;BME280;61043;52.036;5.566;2022-09-12T13:51:05;101382.72;;;27.65;43.33
72900;BME280;61043;52.036;5.566;2022-09-12T13:53:42;101387.31;;;27.72;42.69
72900;BME280;61043;52.036;5.566;2022-09-12T13:56:17;101378.34;;;27.71;40.61
72900;BME280;61043;52.036;5.566;2022-09-12T13:59:10;101384.59;;;27.72;41.88
72900;BME280;61043;52.036;5.566;2022-09-12T14:01:42;101382.66;;;27.52;41.06
72900;BME280;61043;52.036;5.566;2022-09-12T14:04:17;101376.44;;;27.72;41.88
72900;BME280;61043;52.036;5.566;2022-09-12T14:07:20;101381.88;;;27.78;41.60
72900;BME280;61043;52.036;5.566;2022-09-12T14:09:56;101373.50;;;27.73;41.74
72900;BME280;61043;52.036;5.566;2022-09-12T14:12:27;101374.34;;;27.74;39.86
72900;BME280;61043;52.036;5.566;2022-09-12T14:14:55;101362.91;;;27.85;39.12
72900;BME280;61043;52.036;5.566;2022-09-12T14:17:26;101370.25;;;27.98;39.24
72900;BME280;61043;52.036;5.566;2022-09-12T14:19:55;101369.19;;;28.05;39.66
72900;BME280;61043;52.036;5.566;2022-09-12T14:22:30;101341.97;;;27.99;40.33
72900;BME280;61043;52.036;5.566;2022-09-12T14:24:57;101364.38;;;28.14;40.74
72900;BME280;61043;52.036;5.566;2022-09-12T14:27:26;101366.47;;;28.19;40.57
72900;BME280;61043;52.036;5.566;2022-09-12T14:30:22;101363.97;;;28.37;42.12
72900;BME280;61043;52.036;5.566;2022-09-12T14:35:40;101352.88;;;28.39;40.12
72900;BME280;61043;52.036;5.566;2022-09-12T14:41:01;101340.91;;;28.20;39.39
72900;BME280;61043;52.036;5.566;2022-09-12T14:43:33;101350.16;;;28.05;38.96
72900;BME280;61043;52.036;5.566;2022-09-12T14:46:02;101354.13;;;27.90;39.62
72900;BME280;61043;52.036;5.566;2022-09-12T14:48:31;101340.31;;;27.98;40.27
72900;BME280;61043;52.036;5.566;2022-09-12T14:50:58;101331.28;;;27.84;40.08
72900;BME280;61043;52.036;5.566;2022-09-12T14:56:11;101319.06;;;27.53;40.90
72900;BME280;61043;52.036;5.566;2022-09-12T14:58:39;101323.63;;;27.46;40.53
72900;BME280;61043;52.036;5.566;2022-09-12T15:06:34;101320.09;;;27.52;40.97
72900;BME280;61043;52.036;5.566;2022-09-12T15:09:06;101313.81;;;27.52;41.25
72900;BME280;61043;52.036;5.566;2022-09-12T15:11:34;101321.97;;;27.52;41.59
72900;BME280;61043;52.036;5.566;2022-09-12T15:14:13;101323.44;;;27.54;40.50
72900;BME280;61043;52.036;5.566;2022-09-12T15:16:40;101329.72;;;27.48;40.83